Time;durP1;ratioP1;P1;durP2;ratioP2;P2;SDS_P1;SDS_P2;PMS_P1;PMS_P2;Temp;Humidity;BMP_temperature;BMP_pressure;BME280_temperature;BME280_humidity;BME280_pressure;Samples;Min_cycle;Max_cycle;Signal;HPM_P1;HPM_P2
2023/05/18 00:01:22;;;;;;;;;;;;;;;9.42;68.89;93112.19;2051042;70;20112;-73
2023/05/18 00:03:47;;;;;;;;;;;;;;;9.43;68.47;93112.94;2050822;70;20097;-74
2023/05/18 00:06:13;;;;;;;;;;;;;;;9.38;68.44;93111.91;2050904;70;20153;-74
2023/05/18 00:08:38;;;;;;;;;;;;;;;9.41;67.97;93101.56;2050701;70;20086;-74
2023/05/18 00:11:04;;;;;;;;;;;;;;;9.41;68.83;93118.41;2050532;70;20090;-73
2023/05/18 00:13:30;;;;;;;;;;;;;;;9.40;68.25;93109.25;2050909;70;20058;-72
2023/05/18 00:15:56;;;;;;;;;;;;;;;9.31;68.13;93098.75;2050991;69;20429;-73
2023/05/18 00:18:22;;;;;;;;;;;;;;;9.36;68.49;93108.22;2051182;70;20482;-73
2023/05/18 00:20:57;;;;;;;;;;;;;;;9.33;69.64;93104.50;2051088;70;20276;-73
2023/05/18 00:23:28;;;;;;;;;;;;;;;9.33;69.39;93103.78;2051048;70;20457;-73
2023/05/18 00:25:55;;;;;;;;;;;;;;;9.27;69.42;93106.16;2050789;69;20098;-73
2023/05/18 00:28:20;;;;;;;;;;;;;;;9.27;69.42;93094.91;2050651;70;20095;-73
2023/05/18 00:30:47;;;;;;;;;;;;;;;9.31;68.63;93103.66;2051019;70;20093;-73
2023/05/18 00:33:12;;;;;;;;;;;;;;;9.38;68.22;93102.72;2047473;70;20137;-73
2023/05/18 00:35:38;;;;;;;;;;;;;;;9.31;68.75;93095.94;2050215;70;20086;-73
2023/05/18 00:38:03;;;;;;;;;;;;;;;9.32;68.61;93089.00;2050614;70;20165;-73
2023/05/18 00:40:30;;;;;;;;;;;;;;;9.32;68.18;93096.69;2051155;70;20520;-73
2023/05/18 00:42:56;;;;;;;;;;;;;;;9.37;67.96;93101.25;2050709;70;20058;-73
2023/05/18 00:45:22;;;;;;;;;;;;;;;9.41;67.95;93093.84;2051188;69;20090;-73
2023/05/18 00:47:48;;;;;;;;;;;;;;;9.38;68.12;93092.22;2051294;69;20055;-73
2023/05/18 00:50:14;;;;;;;;;;;;;;;9.31;69.82;93086.78;2051431;70;20053;-73
2023/05/18 00:52:51;;;;;;;;;;;;;;;9.34;68.68;93091.94;2051117;69;20070;-75
2023/05/18 00:55:17;;;;;;;;;;;;;;;9.32;69.27;93097.41;2053700;70;20066;-73
2023/05/18 00:57:43;;;;;;;;;;;;;;;9.34;68.80;93094.75;2054510;69;20152;-74
2023/05/18 01:00:09;;;;;;;;;;;;;;;9.33;69.35;93084.84;2053611;70;20070;-74
2023/05/18 01:02:41;;;;;;;;;;;;;;;9.31;69.19;93086.78;2054190;69;20113;-74
2023/05/18 01:05:09;;;;;;;;;;;;;;;9.29;70.24;93081.75;2054489;69;20145;-74
2023/05/18 01:07:36;;;;;;;;;;;;;;;9.32;69.70;93082.63;2054127;69;20185;-75
2023/05/18 01:10:01;;;;;;;;;;;;;;;9.34;69.96;93074.34;2054001;69;20146;-75
2023/05/18 01:12:36;;;;;;;;;;;;;;;9.35;69.64;93078.66;2054267;69;20054;-74
2023/05/18 01:15:02;;;;;;;;;;;;;;;9.34;69.71;93077.88;2053817;70;20046;-73
2023/05/18 01:17:50;;;;;;;;;;;;;;;9.33;69.70;93072.88;2053432;70;20090;-73
2023/05/18 01:20:32;;;;;;;;;;;;;;;9.28;69.72;93082.34;2054183;70;20173;-72
2023/05/18 01:23:04;;;;;;;;;;;;;;;9.26;69.34;93077.31;2053535;70;20058;-73
2023/05/18 01:25:30;;;;;;;;;;;;;;;9.27;69.32;93066.81;2053169;70;20168;-73
2023/05/18 01:28:04;;;;;;;;;;;;;;;9.32;68.56;93071.41;2053473;70;20486;-74
2023/05/18 01:30:30;;;;;;;;;;;;;;;9.35;69.00;93061.78;2053629;70;20059;-74
2023/05/18 01:32:56;;;;;;;;;;;;;;;9.31;68.67;93065.03;2054278;69;20532;-73
2023/05/18 01:35:21;;;;;;;;;;;;;;;9.27;69.81;93064.75;2054036;70;20134;-73
2023/05/18 01:37:47;;;;;;;;;;;;;;;9.29;69.32;93064.88;2054071;69;20093;-73
2023/05/18 01:40:13;;;;;;;;;;;;;;;9.30;68.85;93069.19;2050687;70;20050;-74
2023/05/18 01:42:44;;;;;;;;;;;;;;;9.17;70.63;93061.22;2054780;69;20512;-75
2023/05/18 01:45:15;;;;;;;;;;;;;;;9.23;70.53;93064.47;2055434;69;20050;-73
2023/05/18 01:47:44;;;;;;;;;;;;;;;9.27;70.10;93055.59;2054442;70;20148;-73
2023/05/18 01:50:13;;;;;;;;;;;;;;;9.26;69.74;93057.66;2054947;69;20190;-73
2023/05/18 01:52:45;;;;;;;;;;;;;;;9.26;69.43;93048.50;2054871;69;20047;-74
2023/05/18 01:55:13;;;;;;;;;;;;;;;9.24;69.81;93051.88;2054718;69;20065;-74
2023/05/18 01:57:40;;;;;;;;;;;;;;;9.23;69.86;93055.28;2054953;69;20054;-73
2023/05/18 02:00:06;;;;;;;;;;;;;;;9.30;69.11;93051.56;2054343;70;20145;-73
2023/05/18 02:02:41;;;;;;;;;;;;;;;9.26;69.59;93046.44;2055137;69;20054;-74
2023/05/18 02:05:11;;;;;;;;;;;;;;;9.23;70.10;93044.78;2054597;70;20093;-72
2023/05/18 02:07:39;;;;;;;;;;;;;;;9.22;70.17;93043.31;2055170;69;20057;-73
2023/05/18 02:10:06;;;;;;;;;;;;;;;9.25;69.34;93049.81;2054651;69;20078;-73
2023/05/18 02:12:34;;;;;;;;;;;;;;;9.24;69.71;93042.72;2054096;69;20128;-73
2023/05/18 02:15:04;;;;;;;;;;;;;;;9.23;70.16;93032.81;2054583;69;20061;-73
2023/05/18 02:17:36;;;;;;;;;;;;;;;9.22;70.30;93040.50;2053990;70;20128;-74
2023/05/18 02:20:05;;;;;;;;;;;;;;;9.15;71.04;93035.78;2053904;69;20061;-74
2023/05/18 02:22:31;;;;;;;;;;;;;;;9.23;70.62;93032.81;2054200;70;20050;-73
2023/05/18 02:24:57;;;;;;;;;;;;;;;9.19;70.19;93040.97;2054529;69;20054;-74
2023/05/18 02:27:23;;;;;;;;;;;;;;;9.22;70.11;93040.50;2054303;70;20246;-73
2023/05/18 02:29:48;;;;;;;;;;;;;;;9.10;70.63;93036.84;2055196;69;20082;-74
2023/05/18 02:32:15;;;;;;;;;;;;;;;8.96;71.61;93044.97;2054834;70;20105;-73
2023/05/18 02:34:41;;;;;;;;;;;;;;;9.00;71.88;93050.16;2054579;70;20054;-73
2023/05/18 02:37:07;;;;;;;;;;;;;;;9.06;71.17;93042.16;2054321;70;20064;-74
2023/05/18 02:39:32;;;;;;;;;;;;;;;9.15;70.30;93047.75;2054267;70;20158;-73
2023/05/18 02:41:58;;;;;;;;;;;;;;;9.15;71.06;93039.34;2054166;69;20054;-73
2023/05/18 02:44:24;;;;;;;;;;;;;;;9.10;70.67;93042.44;2054513;70;20058;-73
2023/05/18 02:46:49;;;;;;;;;;;;;;;8.66;72.29;93040.72;2051560;70;20153;-73
2023/05/18 02:49:15;;;;;;;;;;;;;;;8.92;71.30;93041.88;2053871;70;20085;-73
2023/05/18 02:51:41;;;;;;;;;;;;;;;8.75;72.45;93039.97;2054038;70;20153;-74
2023/05/18 02:54:07;;;;;;;;;;;;;;;8.54;73.56;93034.94;2053875;70;20066;-73
2023/05/18 02:56:37;;;;;;;;;;;;;;;8.79;72.09;93036.72;2053631;70;20054;-74
2023/05/18 02:59:23;;;;;;;;;;;;;;;8.85;71.90;93034.34;2053083;69;20489;-73
2023/05/18 03:01:49;;;;;;;;;;;;;;;8.95;71.33;93032.28;2054525;69;20081;-74
2023/05/18 03:04:15;;;;;;;;;;;;;;;8.96;71.01;93024.59;2054353;70;20097;-74
2023/05/18 03:06:46;;;;;;;;;;;;;;;8.98;71.32;93031.09;2054189;70;20484;-73
2023/05/18 03:09:14;;;;;;;;;;;;;;;9.02;71.28;93025.00;2054200;70;20477;-74
2023/05/18 03:11:42;;;;;;;;;;;;;;;9.08;70.43;93028.28;2056986;69;20152;-74
2023/05/18 03:14:08;;;;;;;;;;;;;;;8.93;70.89;93029.31;2054090;70;20564;-74
2023/05/18 03:16:37;;;;;;;;;;;;;;;8.90;71.83;93033.31;2053788;70;20137;-74
2023/05/18 03:19:04;;;;;;;;;;;;;;;8.99;70.57;93023.41;2056962;69;20046;-74
2023/05/18 03:21:34;;;;;;;;;;;;;;;9.02;70.34;93028.56;2057070;69;20061;-74
2023/05/18 03:24:02;;;;;;;;;;;;;;;9.04;70.26;93028.72;2057216;69;20405;-74
2023/05/18 03:26:29;;;;;;;;;;;;;;;9.01;70.68;93034.78;2057369;69;20512;-74
2023/05/18 03:28:55;;;;;;;;;;;;;;;8.98;70.53;93033.16;2051583;69;20072;-74
2023/05/18 03:31:21;;;;;;;;;;;;;;;9.01;69.95;93024.28;2057340;69;20050;-74
2023/05/18 03:33:46;;;;;;;;;;;;;;;9.02;69.77;93033.44;2058322;69;20131;-74
2023/05/18 03:36:12;;;;;;;;;;;;;;;9.01;70.08;93026.34;2057976;69;20479;-73
2023/05/18 03:38:37;;;;;;;;;;;;;;;9.01;70.51;93031.97;2057648;69;20083;-74
2023/05/18 03:41:08;;;;;;;;;;;;;;;8.93;69.44;93020.16;2057745;69;20121;-74
2023/05/18 03:43:35;;;;;;;;;;;;;;;8.93;69.82;93028.56;2054691;69;20210;-73
2023/05/18 03:46:00;;;;;;;;;;;;;;;8.62;70.96;93034.81;2057306;69;20153;-74
2023/05/18 03:48:26;;;;;;;;;;;;;;;8.77;70.33;93040.13;2057509;69;20217;-73
2023/05/18 03:50:52;;;;;;;;;;;;;;;8.92;69.21;93030.66;2057912;69;20190;-73
2023/05/18 03:53:18;;;;;;;;;;;;;;;8.92;70.10;93039.06;2057821;69;20078;-73
2023/05/18 03:55:44;;;;;;;;;;;;;;;8.89;70.04;93032.59;2057568;69;20532;-73
2023/05/18 03:58:09;;;;;;;;;;;;;;;8.90;69.84;93036.88;2054344;69;20066;-73
2023/05/18 04:00:35;;;;;;;;;;;;;;;8.95;69.74;93040.69;2054357;69;20565;-73
2023/05/18 04:03:02;;;;;;;;;;;;;;;8.99;69.48;93041.00;2057892;69;20145;-73
2023/05/18 04:05:28;;;;;;;;;;;;;;;8.98;69.61;93039.53;2057869;69;20165;-73
2023/05/18 04:07:56;;;;;;;;;;;;;;;8.70;70.29;93041.00;2057010;69;20102;-73
2023/05/18 04:10:23;;;;;;;;;;;;;;;8.71;71.03;93044.56;2057018;69;20167;-74
2023/05/18 04:12:48;;;;;;;;;;;;;;;8.66;71.07;93040.72;2057514;69;20054;-74
2023/05/18 04:15:15;;;;;;;;;;;;;;;8.47;71.87;93040.69;2057506;69;20064;-74
2023/05/18 04:17:44;;;;;;;;;;;;;;;8.42;72.38;93047.34;2057440;69;20062;-74
2023/05/18 04:20:13;;;;;;;;;;;;;;;8.63;71.42;93047.50;2057458;69;20093;-75
2023/05/18 04:22:42;;;;;;;;;;;;;;;8.50;72.31;93042.31;2058006;69;20046;-74
2023/05/18 04:25:09;;;;;;;;;;;;;;;8.63;71.18;93041.91;2057310;69;20058;-74
2023/05/18 04:27:35;;;;;;;;;;;;;;;8.79;70.76;93048.66;2057457;69;20120;-74
2023/05/18 04:30:00;;;;;;;;;;;;;;;8.67;70.99;93049.88;2057463;69;20043;-74
2023/05/18 04:32:29;;;;;;;;;;;;;;;8.58;71.39;93046.47;2057549;69;20056;-74
2023/05/18 04:34:57;;;;;;;;;;;;;;;8.63;71.42;93039.09;2057567;69;20140;-74
2023/05/18 04:37:23;;;;;;;;;;;;;;;8.82;70.28;93036.28;2054603;69;20424;-75
2023/05/18 04:39:49;;;;;;;;;;;;;;;8.46;72.40;93044.81;2057884;69;20474;-75
2023/05/18 04:42:17;;;;;;;;;;;;;;;8.45;72.61;93037.75;2057451;69;20050;-74
2023/05/18 04:44:42;;;;;;;;;;;;;;;8.51;72.79;93032.56;2057418;69;20057;-74
2023/05/18 04:47:08;;;;;;;;;;;;;;;8.80;70.81;93038.22;2057436;69;20468;-74
2023/05/18 04:49:35;;;;;;;;;;;;;;;8.60;72.50;93043.06;2057435;69;20073;-74
2023/05/18 04:52:01;;;;;;;;;;;;;;;8.83;71.57;93045.44;2058076;69;20056;-74
2023/05/18 04:54:29;;;;;;;;;;;;;;;8.73;71.80;93037.00;2057313;69;20046;-75
2023/05/18 04:56:56;;;;;;;;;;;;;;;8.94;70.45;93033.63;2057356;69;20061;-74
2023/05/18 04:59:25;;;;;;;;;;;;;;;8.94;70.97;93041.31;2058509;69;20108;-74
2023/05/18 05:01:53;;;;;;;;;;;;;;;8.93;70.66;93037.00;2057445;69;20383;-75
2023/05/18 05:04:20;;;;;;;;;;;;;;;8.85;70.84;93051.19;2057416;69;20057;-75
2023/05/18 05:06:45;;;;;;;;;;;;;;;9.00;70.95;93041.72;2057402;69;20113;-75
2023/05/18 05:09:13;;;;;;;;;;;;;;;9.08;70.06;93048.66;2057480;69;20061;-74
2023/05/18 05:11:42;;;;;;;;;;;;;;;9.15;70.66;93044.22;2058020;69;20454;-74
2023/05/18 05:14:07;;;;;;;;;;;;;;;9.22;70.07;93048.94;2057861;69;20060;-74
2023/05/18 05:16:33;;;;;;;;;;;;;;;9.27;69.93;93039.47;2057326;69;20062;-74
2023/05/18 05:18:59;;;;;;;;;;;;;;;9.32;69.64;93051.72;2057243;69;20168;-74
2023/05/18 05:21:25;;;;;;;;;;;;;;;9.25;70.00;93047.00;2057945;69;20065;-74
2023/05/18 05:23:52;;;;;;;;;;;;;;;9.35;69.61;93048.47;2057195;69;20054;-73
2023/05/18 05:26:23;;;;;;;;;;;;;;;9.06;70.43;93048.50;2057203;69;20121;-74
2023/05/18 05:28:49;;;;;;;;;;;;;;;9.06;70.13;93042.88;2057276;69;20236;-74
2023/05/18 05:31:15;;;;;;;;;;;;;;;9.02;70.09;93053.09;2057268;69;20601;-74
2023/05/18 05:33:40;;;;;;;;;;;;;;;9.27;69.96;93056.31;2057721;69;20054;-74
2023/05/18 05:36:07;;;;;;;;;;;;;;;8.77;72.03;93051.34;2057307;69;20418;-74
2023/05/18 05:38:33;;;;;;;;;;;;;;;9.28;70.38;93051.44;2057215;69;20069;-74
2023/05/18 05:40:59;;;;;;;;;;;;;;;9.43;69.31;93042.66;2057190;69;20467;-74
2023/05/18 05:43:24;;;;;;;;;;;;;;;9.52;70.05;93050.34;2057304;69;20137;-74
2023/05/18 05:45:50;;;;;;;;;;;;;;;9.61;69.22;93049.56;2057270;69;20058;-74
2023/05/18 05:48:16;;;;;;;;;;;;;;;9.59;69.18;93049.44;2057193;69;20068;-75
2023/05/18 05:50:42;;;;;;;;;;;;;;;9.70;68.02;93050.88;2057849;69;20058;-74
2023/05/18 05:53:08;;;;;;;;;;;;;;;9.60;68.57;93045.28;2057165;69;20046;-75
2023/05/18 05:55:40;;;;;;;;;;;;;;;9.57;68.50;93049.28;2057077;69;20465;-74
2023/05/18 05:58:06;;;;;;;;;;;;;;;9.16;69.41;93046.44;2057416;69;20065;-74
2023/05/18 06:00:32;;;;;;;;;;;;;;;9.36;69.32;93049.94;2057333;69;20522;-74
2023/05/18 06:03:01;;;;;;;;;;;;;;;9.40;69.25;93044.63;2054605;69;20092;-73
2023/05/18 06:05:33;;;;;;;;;;;;;;;9.68;68.20;93057.09;2057362;69;20145;-74
2023/05/18 06:07:59;;;;;;;;;;;;;;;9.91;67.30;93042.50;2057156;69;20046;-73
2023/05/18 06:10:25;;;;;;;;;;;;;;;9.71;67.37;93046.72;2057038;69;20070;-74
2023/05/18 06:12:51;;;;;;;;;;;;;;;9.71;67.22;93048.78;2054370;69;20587;-75
2023/05/18 06:15:18;;;;;;;;;;;;;;;9.70;67.41;93055.75;2057109;69;20510;-75
2023/05/18 06:17:44;;;;;;;;;;;;;;;9.65;68.06;93049.84;2057104;69;20168;-75
2023/05/18 06:20:11;;;;;;;;;;;;;;;10.00;67.15;93051.50;2057305;69;20149;-75
2023/05/18 06:22:36;;;;;;;;;;;;;;;9.42;68.57;93055.25;2057206;69;20088;-75
2023/05/18 06:25:21;;;;;;;;;;;;;;;9.83;67.51;93058.81;2057634;69;20120;-75
2023/05/18 06:28:25;;;;;;;;;;;;;;;9.88;67.97;93051.41;2046944;70;20073;-75
2023/05/18 06:30:58;;;;;;;;;;;;;;;9.86;67.63;93054.81;2044426;70;20055;-75
2023/05/18 06:33:40;;;;;;;;;;;;;;;9.49;69.40;93062.78;2052557;69;20080;-75
2023/05/18 06:36:06;;;;;;;;;;;;;;;9.62;68.47;93059.50;2057642;69;20074;-75
2023/05/18 06:38:31;;;;;;;;;;;;;;;9.89;67.89;93062.03;2057598;69;20053;-75
2023/05/18 06:40:57;;;;;;;;;;;;;;;10.21;66.99;93059.22;2057557;69;20050;-75
2023/05/18 06:43:25;;;;;;;;;;;;;;;10.55;65.83;93052.41;2057675;69;20050;-75
2023/05/18 06:46:02;;;;;;;;;;;;;;;10.41;65.64;93060.63;2058319;69;20046;-75
2023/05/18 06:48:37;;;;;;;;;;;;;;;10.86;64.72;93058.69;2057698;69;20149;-75
2023/05/18 06:51:03;;;;;;;;;;;;;;;11.04;63.14;93056.34;2058573;69;20272;-76
2023/05/18 06:53:30;;;;;;;;;;;;;;;11.04;63.68;93058.38;2057845;69;20050;-75
2023/05/18 06:55:56;;;;;;;;;;;;;;;11.25;64.31;93057.63;2057547;69;20070;-75
2023/05/18 06:58:22;;;;;;;;;;;;;;;11.25;62.84;93058.34;2058167;69;20042;-75
2023/05/18 07:00:48;;;;;;;;;;;;;;;10.60;64.16;93056.97;2057674;69;20083;-75
2023/05/18 07:03:14;;;;;;;;;;;;;;;11.00;63.14;93055.34;2057608;69;20046;-75
2023/05/18 07:05:42;;;;;;;;;;;;;;;11.15;62.16;93066.91;2058420;69;20042;-75
2023/05/18 07:08:08;;;;;;;;;;;;;;;11.01;62.32;93063.19;2058292;69;20046;-76
2023/05/18 07:10:34;;;;;;;;;;;;;;;11.32;61.49;93062.31;2058006;69;20064;-75
2023/05/18 07:13:00;;;;;;;;;;;;;;;11.34;61.74;93063.16;2058204;69;20046;-77
2023/05/18 07:15:25;;;;;;;;;;;;;;;11.01;61.67;93066.00;2058185;69;20070;-75
2023/05/18 07:17:51;;;;;;;;;;;;;;;11.60;61.38;93054.91;2058189;69;20057;-77
2023/05/18 07:20:16;;;;;;;;;;;;;;;11.65;60.54;93059.47;2058162;69;20095;-75
2023/05/18 07:22:42;;;;;;;;;;;;;;;11.68;59.87;93056.16;2058398;69;20046;-76
2023/05/18 07:25:07;;;;;;;;;;;;;;;11.68;60.92;93058.97;2058114;69;20054;-76
2023/05/18 07:27:33;;;;;;;;;;;;;;;12.09;60.20;93060.75;2058201;69;20050;-76
2023/05/18 07:29:58;;;;;;;;;;;;;;;12.19;59.46;93055.72;2058301;69;20141;-74
2023/05/18 07:32:24;;;;;;;;;;;;;;;11.99;59.19;93060.88;2058297;69;20340;-77
2023/05/18 07:34:49;;;;;;;;;;;;;;;12.22;58.66;93048.84;2058161;69;20487;-74
2023/05/18 07:37:15;;;;;;;;;;;;;;;11.43;59.84;93056.69;2057977;69;20050;-74
2023/05/18 07:39:41;;;;;;;;;;;;;;;11.99;59.16;93057.31;2058054;69;20054;-74
2023/05/18 07:42:07;;;;;;;;;;;;;;;11.95;59.16;93058.53;2058016;69;20046;-74
2023/05/18 07:44:33;;;;;;;;;;;;;;;11.33;60.33;93053.25;2058245;69;20054;-75
2023/05/18 07:46:59;;;;;;;;;;;;;;;12.04;59.05;93056.94;2057526;69;20068;-74
2023/05/18 07:49:24;;;;;;;;;;;;;;;12.43;58.47;93053.63;2058230;69;20057;-74
2023/05/18 07:51:50;;;;;;;;;;;;;;;12.01;59.03;93051.81;2058098;69;20142;-74
2023/05/18 07:54:15;;;;;;;;;;;;;;;11.75;60.17;93053.72;2058164;69;20105;-75
2023/05/18 07:56:43;;;;;;;;;;;;;;;11.67;61.24;93051.09;2057525;69;20510;-74
2023/05/18 07:59:09;;;;;;;;;;;;;;;12.28;60.69;93057.69;2058234;69;20141;-75
2023/05/18 08:01:36;;;;;;;;;;;;;;;12.09;59.25;93047.38;2058320;69;20133;-75
2023/05/18 08:04:02;;;;;;;;;;;;;;;12.53;58.30;93059.13;2058140;69;20050;-74
2023/05/18 08:06:27;;;;;;;;;;;;;;;12.36;57.65;93060.25;2057514;69;20046;-74
2023/05/18 08:08:55;;;;;;;;;;;;;;;12.40;57.35;93060.50;2057367;69;20049;-75
2023/05/18 08:11:21;;;;;;;;;;;;;;;12.75;57.25;93065.38;2057918;69;20082;-75
2023/05/18 08:13:46;;;;;;;;;;;;;;;12.72;56.76;93059.59;2058257;69;20113;-74
2023/05/18 08:16:11;;;;;;;;;;;;;;;12.83;55.98;93057.34;2058190;69;20046;-75
2023/05/18 08:18:37;;;;;;;;;;;;;;;13.02;56.15;93062.72;2058126;69;20050;-75
2023/05/18 08:21:03;;;;;;;;;;;;;;;12.86;56.88;93067.41;2058060;69;20054;-75
2023/05/18 08:23:28;;;;;;;;;;;;;;;12.79;56.35;93071.25;2058013;69;20053;-74
2023/05/18 08:25:55;;;;;;;;;;;;;;;12.67;56.82;93069.19;2057828;69;20054;-74
2023/05/18 08:28:21;;;;;;;;;;;;;;;12.43;57.02;93065.66;2057989;69;20054;-74
2023/05/18 08:30:47;;;;;;;;;;;;;;;12.62;56.51;93059.00;2058109;69;20421;-74
2023/05/18 08:33:12;;;;;;;;;;;;;;;13.00;55.84;93059.75;2058060;69;20054;-75
2023/05/18 08:35:38;;;;;;;;;;;;;;;13.14;55.80;93059.84;2057955;69;20056;-74
2023/05/18 08:38:04;;;;;;;;;;;;;;;13.29;55.11;93059.34;2057909;69;20061;-74
2023/05/18 08:40:41;;;;;;;;;;;;;;;13.24;54.65;93071.78;2057310;69;20140;-75
2023/05/18 08:43:10;;;;;;;;;;;;;;;13.37;54.74;93059.03;2058015;69;20490;-75
2023/05/18 08:45:41;;;;;;;;;;;;;;;13.25;54.89;93066.84;2058823;69;20069;-74
2023/05/18 08:48:06;;;;;;;;;;;;;;;13.00;55.14;93056.19;2057976;69;20622;-75
2023/05/18 08:50:33;;;;;;;;;;;;;;;12.96;54.91;93057.44;2058105;69;20133;-78
2023/05/18 08:53:00;;;;;;;;;;;;;;;13.18;54.13;93063.63;2057929;69;20053;-74
2023/05/18 08:55:27;;;;;;;;;;;;;;;13.19;54.83;93061.53;2057866;69;20105;-74
2023/05/18 08:57:56;;;;;;;;;;;;;;;13.50;54.15;93054.81;2057921;69;20052;-75
2023/05/18 09:00:25;;;;;;;;;;;;;;;13.69;53.23;93054.44;2057366;69;20082;-73
2023/05/18 09:02:51;;;;;;;;;;;;;;;13.80;53.63;93056.47;2057973;69;20049;-74
2023/05/18 09:05:17;;;;;;;;;;;;;;;13.82;52.78;93053.03;2057864;69;20593;-75
2023/05/18 09:07:42;;;;;;;;;;;;;;;13.67;52.42;93045.84;2057981;69;20048;-76
2023/05/18 09:10:12;;;;;;;;;;;;;;;13.67;52.86;93051.53;2057873;69;20058;-76
2023/05/18 09:12:40;;;;;;;;;;;;;;;13.90;52.10;93053.47;2057865;69;20148;-79
2023/05/18 09:15:07;;;;;;;;;;;;;;;14.11;52.54;93050.38;2057832;69;20482;-75
2023/05/18 09:17:32;;;;;;;;;;;;;;;13.86;52.78;93044.75;2057862;69;20093;-75
2023/05/18 09:19:57;;;;;;;;;;;;;;;13.93;51.31;93041.63;2057862;69;20447;-75
2023/05/18 09:22:23;;;;;;;;;;;;;;;14.33;51.84;93036.63;2058106;69;20086;-76
2023/05/18 09:24:49;;;;;;;;;;;;;;;14.40;52.03;93037.69;2057686;69;20057;-75
2023/05/18 09:27:15;;;;;;;;;;;;;;;14.29;49.34;93044.19;2057796;69;20049;-76
2023/05/18 09:29:53;;;;;;;;;;;;;;;12.93;52.04;93043.81;2057790;69;20057;-76
2023/05/18 09:32:19;;;;;;;;;;;;;;;12.96;52.19;93039.75;2057745;69;20093;-74
2023/05/18 09:34:47;;;;;;;;;;;;;;;13.22;52.64;93051.84;2057650;69;20509;-74
2023/05/18 09:37:15;;;;;;;;;;;;;;;13.62;51.85;93053.38;2057742;69;20046;-76
2023/05/18 09:39:40;;;;;;;;;;;;;;;13.97;52.16;93044.69;2057686;69;20467;-75
2023/05/18 09:42:07;;;;;;;;;;;;;;;13.80;50.13;93041.59;2057824;69;20102;-75
2023/05/18 09:44:34;;;;;;;;;;;;;;;14.11;50.99;93041.88;2057737;69;20053;-76
2023/05/18 09:47:00;;;;;;;;;;;;;;;14.33;50.67;93035.91;2057797;69;20050;-75
2023/05/18 09:49:27;;;;;;;;;;;;;;;13.77;51.67;93040.75;2057697;69;20066;-75
2023/05/18 09:51:53;;;;;;;;;;;;;;;14.40;50.47;93040.53;2057917;69;20057;-75
2023/05/18 09:54:18;;;;;;;;;;;;;;;14.47;49.37;93033.81;2057095;69;20061;-75
2023/05/18 09:56:45;;;;;;;;;;;;;;;14.67;48.90;93034.16;2058003;69;20053;-77
2023/05/18 09:59:13;;;;;;;;;;;;;;;14.79;50.14;93031.94;2057696;69;20054;-75
2023/05/18 10:01:59;;;;;;;;;;;;;;;15.03;49.29;93034.50;2057678;69;20509;-77
2023/05/18 10:04:33;;;;;;;;;;;;;;;14.97;49.83;93032.09;2057978;69;20528;-76
2023/05/18 10:07:00;;;;;;;;;;;;;;;14.95;47.82;93029.91;2058223;69;20053;-76
2023/05/18 10:09:26;;;;;;;;;;;;;;;15.08;47.84;93028.41;2058034;69;20537;-76
2023/05/18 10:11:51;;;;;;;;;;;;;;;15.22;48.15;93026.28;2058338;69;20104;-79
2023/05/18 10:14:17;;;;;;;;;;;;;;;15.47;48.17;93021.78;2058184;69;20061;-79
2023/05/18 10:16:43;;;;;;;;;;;;;;;15.02;47.95;93024.53;2058161;69;20535;-76
2023/05/18 10:19:09;;;;;;;;;;;;;;;15.21;47.55;93019.16;2058241;69;20097;-75
2023/05/18 10:21:35;;;;;;;;;;;;;;;15.67;47.54;93022.78;2058209;69;20112;-77
2023/05/18 10:24:03;;;;;;;;;;;;;;;14.92;47.65;93024.78;2058336;69;20066;-75
2023/05/18 10:26:29;;;;;;;;;;;;;;;15.30;46.63;93016.69;2057472;69;20490;-76
2023/05/18 10:28:55;;;;;;;;;;;;;;;15.78;47.34;93023.97;2058193;69;20085;-75
2023/05/18 10:31:22;;;;;;;;;;;;;;;16.01;46.33;93028.56;2058158;69;20054;-76
2023/05/18 10:33:49;;;;;;;;;;;;;;;16.30;45.99;93032.69;2058290;69;20061;-77
2023/05/18 10:36:16;;;;;;;;;;;;;;;16.19;46.38;93026.56;2058210;69;20104;-76
2023/05/18 10:38:44;;;;;;;;;;;;;;;15.61;45.55;93025.28;2059073;69;20061;-76
2023/05/18 10:41:10;;;;;;;;;;;;;;;15.13;46.74;93032.19;2059308;69;20046;-76
2023/05/18 10:43:36;;;;;;;;;;;;;;;15.93;45.66;93034.59;2058338;69;20046;-77
2023/05/18 10:46:02;;;;;;;;;;;;;;;16.40;45.38;93031.06;2058221;69;20053;-76
2023/05/18 10:48:28;;;;;;;;;;;;;;;16.30;45.17;93024.19;2058520;69;20050;-76
2023/05/18 10:50:54;;;;;;;;;;;;;;;17.29;43.13;93024.91;2058222;69;20053;-75
2023/05/18 10:53:21;;;;;;;;;;;;;;;15.97;42.84;93020.59;2058301;69;20054;-75
2023/05/18 10:55:47;;;;;;;;;;;;;;;17.93;42.07;93031.03;2058046;69;20065;-75
2023/05/18 10:58:14;;;;;;;;;;;;;;;19.67;37.85;93024.41;2058134;69;20161;-75
2023/05/18 11:00:41;;;;;;;;;;;;;;;20.17;36.26;93027.38;2058117;69;20104;-75
2023/05/18 11:03:11;;;;;;;;;;;;;;;19.48;39.33;93023.06;2058091;69;20120;-75
2023/05/18 11:05:38;;;;;;;;;;;;;;;18.57;39.89;93011.31;2058304;69;20153;-76
2023/05/18 11:08:04;;;;;;;;;;;;;;;18.29;41.30;93021.03;2058137;69;20054;-74
2023/05/18 11:10:41;;;;;;;;;;;;;;;18.42;38.27;93013.66;2058038;69;20414;-75
2023/05/18 11:13:07;;;;;;;;;;;;;;;17.74;39.37;93016.06;2058139;69;20126;-76
2023/05/18 11:15:51;;;;;;;;;;;;;;;18.03;40.31;93011.47;2058072;69;20443;-77
2023/05/18 11:18:16;;;;;;;;;;;;;;;17.87;39.95;93011.59;2058007;69;20084;-78
2023/05/18 11:20:44;;;;;;;;;;;;;;;18.98;37.89;93010.66;2058089;69;20050;-76
2023/05/18 11:23:09;;;;;;;;;;;;;;;19.12;36.60;93007.56;2058066;69;20057;-74
2023/05/18 11:25:35;;;;;;;;;;;;;;;19.05;37.98;93007.34;2058012;69;20517;-75
2023/05/18 11:28:04;;;;;;;;;;;;;;;20.16;36.78;93016.59;2058072;69;20149;-75
2023/05/18 11:30:29;;;;;;;;;;;;;;;19.78;36.22;93009.03;2058008;69;20049;-78
2023/05/18 11:33:16;;;;;;;;;;;;;;;21.21;36.23;93009.56;2058170;69;20141;-77
2023/05/18 11:36:02;;;;;;;;;;;;;;;20.61;35.16;92997.94;2057995;69;20116;-75
2023/05/18 11:38:48;;;;;;;;;;;;;;;19.91;36.74;93003.72;2058092;69;20046;-76
2023/05/18 11:41:33;;;;;;;;;;;;;;;19.54;36.51;93005.38;2055442;69;20046;-75
2023/05/18 11:44:10;;;;;;;;;;;;;;;18.45;38.19;93008.75;2058100;69;20061;-74
2023/05/18 11:46:36;;;;;;;;;;;;;;;18.44;38.57;93001.59;2058020;69;20115;-75
2023/05/18 11:49:14;;;;;;;;;;;;;;;18.16;38.07;93006.97;2057477;69;20057;-75
2023/05/18 11:52:00;;;;;;;;;;;;;;;18.23;39.71;93006.53;2058072;69;20113;-75
2023/05/18 11:54:25;;;;;;;;;;;;;;;18.57;39.63;93006.34;2055491;69;20094;-75
2023/05/18 11:56:51;;;;;;;;;;;;;;;18.83;39.52;93009.44;2058645;69;20142;-77
2023/05/18 11:59:17;;;;;;;;;;;;;;;18.97;39.32;93012.06;2058241;69;20074;-76
2023/05/18 12:01:42;;;;;;;;;;;;;;;17.49;40.69;93016.44;2058006;69;20153;-77
2023/05/18 12:04:08;;;;;;;;;;;;;;;17.71;40.10;93002.38;2058189;69;20462;-76
2023/05/18 12:06:34;;;;;;;;;;;;;;;18.44;40.90;92999.47;2057983;69;20472;-76
2023/05/18 12:09:00;;;;;;;;;;;;;;;18.33;41.57;93002.63;2057909;69;20517;-76
2023/05/18 12:11:25;;;;;;;;;;;;;;;18.00;39.90;92998.53;2057921;69;20050;-76
2023/05/18 12:13:53;;;;;;;;;;;;;;;18.72;40.10;92990.50;2057436;69;20057;-75
2023/05/18 12:16:22;;;;;;;;;;;;;;;17.66;39.51;92997.91;2057898;69;20442;-75
2023/05/18 12:18:48;;;;;;;;;;;;;;;18.61;40.56;92983.69;2057922;69;20054;-75
2023/05/18 12:21:19;;;;;;;;;;;;;;;19.50;38.24;92974.56;2057870;69;20100;-74
2023/05/18 12:23:44;;;;;;;;;;;;;;;20.06;39.08;92982.72;2057901;69;20049;-75
2023/05/18 12:26:10;;;;;;;;;;;;;;;20.36;39.45;92982.19;2057742;69;20466;-76
2023/05/18 12:28:36;;;;;;;;;;;;;;;20.88;37.30;92979.38;2057723;69;20050;-75
2023/05/18 12:31:06;;;;;;;;;;;;;;;21.54;37.26;92977.53;2057235;69;20486;-75
2023/05/18 12:33:36;;;;;;;;;;;;;;;21.00;36.56;92983.28;2058926;69;20054;-75
2023/05/18 12:36:01;;;;;;;;;;;;;;;20.20;35.82;92974.59;2058408;69;20053;-74
2023/05/18 12:38:28;;;;;;;;;;;;;;;18.97;38.78;92978.53;2057901;69;20080;-75
2023/05/18 12:40:55;;;;;;;;;;;;;;;19.05;37.47;92975.22;2057823;69;20058;-75
2023/05/18 12:43:24;;;;;;;;;;;;;;;18.98;37.71;92970.72;2057890;69;20486;-75
2023/05/18 12:45:49;;;;;;;;;;;;;;;20.04;37.51;92971.97;2057858;69;20129;-75
2023/05/18 12:48:15;;;;;;;;;;;;;;;20.52;36.64;92977.66;2057382;69;20054;-76
2023/05/18 12:50:47;;;;;;;;;;;;;;;19.65;36.72;92964.34;2057344;69;20421;-76
2023/05/18 12:53:13;;;;;;;;;;;;;;;19.97;36.40;92972.47;2057937;69;20096;-76
2023/05/18 12:55:38;;;;;;;;;;;;;;;20.02;37.08;92956.88;2057693;69;20502;-75